sensor_id;sensor_type;location;lat;lon;timestamp;temperature;humidity
39345;DHT22;25061;51.954;6.996;2023-06-05T04:31:17;10.10;99.90
39345;DHT22;25061;51.954;6.996;2023-06-05T04:33:43;10.10;99.90
39345;DHT22;25061;51.954;6.996;2023-06-05T04:36:08;10.20;99.90
39345;DHT22;25061;51.954;6.996;2023-06-05T04:38:34;10.20;99.90
39345;DHT22;25061;51.954;6.996;2023-06-05T04:41:00;10.20;99.90
39345;DHT22;25061;51.954;6.996;2023-06-05T04:43:26;10.20;99.90
39345;DHT22;25061;51.954;6.996;2023-06-05T04:45:51;10.20;99.90
39345;DHT22;25061;51.954;6.996;2023-06-05T04:48:18;10.20;99.90
39345;DHT22;25061;51.954;6.996;2023-06-05T04:50:43;10.20;99.90
39345;DHT22;25061;51.954;6.996;2023-06-05T04:53:09;10.20;99.90
39345;DHT22;25061;51.954;6.996;2023-06-05T04:55:36;10.30;99.90
39345;DHT22;25061;51.954;6.996;2023-06-05T04:58:01;10.30;99.90
39345;DHT22;25061;51.954;6.996;2023-06-05T05:00:28;10.20;99.90
39345;DHT22;25061;51.954;6.996;2023-06-05T05:02:53;10.20;99.90
39345;DHT22;25061;51.954;6.996;2023-06-05T05:05:19;10.40;99.90
39345;DHT22;25061;51.954;6.996;2023-06-05T05:07:45;10.40;99.90
39345;DHT22;25061;51.954;6.996;2023-06-05T05:10:11;10.40;99.90
39345;DHT22;25061;51.954;6.996;2023-06-05T05:12:37;10.40;99.90
39345;DHT22;25061;51.954;6.996;2023-06-05T05:15:03;10.50;99.90
39345;DHT22;25061;51.954;6.996;2023-06-05T05:17:30;10.40;99.90
39345;DHT22;25061;51.954;6.996;2023-06-05T05:19:56;10.60;99.90
39345;DHT22;25061;51.954;6.996;2023-06-05T05:22:22;10.60;99.90
39345;DHT22;25061;51.954;6.996;2023-06-05T05:24:48;10.60;99.90
39345;DHT22;25061;51.954;6.996;2023-06-05T05:27:13;10.70;99.90
39345;DHT22;25061;51.954;6.996;2023-06-05T05:29:39;10.80;99.90
39345;DHT22;25061;51.954;6.996;2023-06-05T05:32:05;10.80;99.90
39345;DHT22;25061;51.954;6.996;2023-06-05T05:34:31;10.80;99.90
39345;DHT22;25061;51.954;6.996;2023-06-05T05:36:57;10.80;99.90
39345;DHT22;25061;51.954;6.996;2023-06-05T05:39:22;10.80;99.90
39345;DHT22;25061;51.954;6.996;2023-06-05T05:41:48;11.00;99.90
39345;DHT22;25061;51.954;6.996;2023-06-05T05:44:14;11.10;99.90
39345;DHT22;25061;51.954;6.996;2023-06-05T05:46:40;11.10;99.90
39345;DHT22;25061;51.954;6.996;2023-06-05T05:49:06;11.20;99.90
39345;DHT22;25061;51.954;6.996;2023-06-05T05:51:31;11.20;99.90
39345;DHT22;25061;51.954;6.996;2023-06-05T05:53:58;11.20;99.90
39345;DHT22;25061;51.954;6.996;2023-06-05T05:56:24;11.30;99.90
39345;DHT22;25061;51.954;6.996;2023-06-05T05:58:50;11.40;99.90
39345;DHT22;25061;51.954;6.996;2023-06-05T06:01:15;11.40;99.90
39345;DHT22;25061;51.954;6.996;2023-06-05T06:03:41;11.60;99.90
39345;DHT22;25061;51.954;6.996;2023-06-05T06:06:08;11.70;99.90
39345;DHT22;25061;51.954;6.996;2023-06-05T06:08:36;11.70;99.90
39345;DHT22;25061;51.954;6.996;2023-06-05T06:11:02;11.80;99.90
39345;DHT22;25061;51.954;6.996;2023-06-05T06:13:32;11.90;99.90
39345;DHT22;25061;51.954;6.996;2023-06-05T06:15:59;12.80;99.90
39345;DHT22;25061;51.954;6.996;2023-06-05T06:18:25;12.80;99.90
39345;DHT22;25061;51.954;6.996;2023-06-05T06:20:51;13.20;99.90
39345;DHT22;25061;51.954;6.996;2023-06-05T06:23:16;13.60;99.90
39345;DHT22;25061;51.954;6.996;2023-06-05T06:25:42;13.40;99.90
39345;DHT22;25061;51.954;6.996;2023-06-05T06:28:07;13.00;99.90
39345;DHT22;25061;51.954;6.996;2023-06-05T06:30:33;12.80;99.90
39345;DHT22;25061;51.954;6.996;2023-06-05T06:33:00;12.90;99.90
39345;DHT22;25061;51.954;6.996;2023-06-05T06:35:26;12.90;99.90
39345;DHT22;25061;51.954;6.996;2023-06-05T06:37:55;12.90;99.90
39345;DHT22;25061;51.954;6.996;2023-06-05T06:40:22;13.10;99.90
39345;DHT22;25061;51.954;6.996;2023-06-05T06:42:48;13.10;99.90
39345;DHT22;25061;51.954;6.996;2023-06-05T06:45:14;13.30;99.90
39345;DHT22;25061;51.954;6.996;2023-06-05T06:47:40;13.30;99.90
39345;DHT22;25061;51.954;6.996;2023-06-05T06:50:07;13.30;99.90
39345;DHT22;25061;51.954;6.996;2023-06-05T06:52:32;13.50;99.90
39345;DHT22;25061;51.954;6.996;2023-06-05T06:54:58;13.30;99.90
39345;DHT22;25061;51.954;6.996;2023-06-05T06:57:24;13.40;99.90
39345;DHT22;25061;51.954;6.996;2023-06-05T06:59:51;13.50;99.90
39345;DHT22;25061;51.954;6.996;2023-06-05T07:02:19;13.80;99.90
39345;DHT22;25061;51.954;6.996;2023-06-05T07:04:46;13.80;99.90
39345;DHT22;25061;51.954;6.996;2023-06-05T07:07:15;13.60;99.90
39345;DHT22;25061;51.954;6.996;2023-06-05T07:09:42;13.70;99.90
39345;DHT22;25061;51.954;6.996;2023-06-05T07:12:09;14.00;99.90
39345;DHT22;25061;51.954;6.996;2023-06-05T07:14:37;14.10;99.90
39345;DHT22;25061;51.954;6.996;2023-06-05T07:17:03;14.10;99.90
39345;DHT22;25061;51.954;6.996;2023-06-05T07:19:30;13.90;99.90
39345;DHT22;25061;51.954;6.996;2023-06-05T07:21:58;13.90;99.90
39345;DHT22;25061;51.954;6.996;2023-06-05T07:24:25;13.90;99.90
39345;DHT22;25061;51.954;6.996;2023-06-05T07:26:53;14.10;99.90
39345;DHT22;25061;51.954;6.996;2023-06-05T07:29:19;14.20;99.90
39345;DHT22;25061;51.954;6.996;2023-06-05T07:31:46;14.40;99.90
39345;DHT22;25061;51.954;6.996;2023-06-05T07:34:12;14.10;99.90
39345;DHT22;25061;51.954;6.996;2023-06-05T07:36:39;14.00;99.90
39345;DHT22;25061;51.954;6.996;2023-06-05T07:39:05;14.20;99.90
39345;DHT22;25061;51.954;6.996;2023-06-05T07:41:31;14.40;99.90
39345;DHT22;25061;51.954;6.996;2023-06-05T07:43:57;14.30;99.90
39345;DHT22;25061;51.954;6.996;2023-06-05T07:46:23;14.60;99.90
39345;DHT22;25061;51.954;6.996;2023-06-05T07:48:48;14.70;99.90
39345;DHT22;25061;51.954;6.996;2023-06-05T07:51:14;14.70;99.90
39345;DHT22;25061;51.954;6.996;2023-06-05T07:53:43;14.90;99.90
39345;DHT22;25061;51.954;6.996;2023-06-05T07:56:08;14.70;99.90
39345;DHT22;25061;51.954;6.996;2023-06-05T07:58:34;14.90;99.90
39345;DHT22;25061;51.954;6.996;2023-06-05T08:01:00;14.90;99.90
39345;DHT22;25061;51.954;6.996;2023-06-05T08:03:28;15.10;99.90
39345;DHT22;25061;51.954;6.996;2023-06-05T08:05:55;15.00;99.90
39345;DHT22;25061;51.954;6.996;2023-06-05T08:08:20;15.10;99.90
39345;DHT22;25061;51.954;6.996;2023-06-05T08:10:46;15.00;99.90
39345;DHT22;25061;51.954;6.996;2023-06-05T08:13:13;15.20;99.90
39345;DHT22;25061;51.954;6.996;2023-06-05T08:15:38;15.40;99.90
39345;DHT22;25061;51.954;6.996;2023-06-05T08:18:05;15.40;99.90
39345;DHT22;25061;51.954;6.996;2023-06-05T08:20:31;15.60;99.90
39345;DHT22;25061;51.954;6.996;2023-06-05T08:22:56;15.70;99.90
39345;DHT22;25061;51.954;6.996;2023-06-05T08:25:26;15.80;99.90
39345;DHT22;25061;51.954;6.996;2023-06-05T08:27:52;15.90;99.90
39345;DHT22;25061;51.954;6.996;2023-06-05T08:30:18;15.80;99.90
39345;DHT22;25061;51.954;6.996;2023-06-05T08:32:44;15.70;99.90
39345;DHT22;25061;51.954;6.996;2023-06-05T08:35:11;15.90;99.90
39345;DHT22;25061;51.954;6.996;2023-06-05T08:37:38;16.00;99.90
39345;DHT22;25061;51.954;6.996;2023-06-05T08:40:04;16.10;99.90
39345;DHT22;25061;51.954;6.996;2023-06-05T08:42:37;16.10;99.90
39345;DHT22;25061;51.954;6.996;2023-06-05T08:45:06;16.10;99.90
39345;DHT22;25061;51.954;6.996;2023-06-05T08:47:35;16.20;99.90
39345;DHT22;25061;51.954;6.996;2023-06-05T08:50:04;16.40;99.90
39345;DHT22;25061;51.954;6.996;2023-06-05T08:52:33;16.40;99.90
39345;DHT22;25061;51.954;6.996;2023-06-05T08:55:00;16.40;99.90
39345;DHT22;25061;51.954;6.996;2023-06-05T08:57:27;16.60;99.90
39345;DHT22;25061;51.954;6.996;2023-06-05T08:59:54;16.70;99.90
39345;DHT22;25061;51.954;6.996;2023-06-05T09:02:19;16.80;99.90
39345;DHT22;25061;51.954;6.996;2023-06-05T09:04:45;16.90;99.90
39345;DHT22;25061;51.954;6.996;2023-06-05T09:07:12;16.80;99.90
39345;DHT22;25061;51.954;6.996;2023-06-05T09:09:38;16.80;99.90
39345;DHT22;25061;51.954;6.996;2023-06-05T09:12:05;17.00;99.90
39345;DHT22;25061;51.954;6.996;2023-06-05T09:14:32;17.30;99.90
39345;DHT22;25061;51.954;6.996;2023-06-05T09:16:59;17.30;99.90
39345;DHT22;25061;51.954;6.996;2023-06-05T09:19:38;17.50;99.90
39345;DHT22;25061;51.954;6.996;2023-06-05T09:22:07;17.40;99.90
39345;DHT22;25061;51.954;6.996;2023-06-05T09:24:33;17.50;99.90
39345;DHT22;25061;51.954;6.996;2023-06-05T09:27:02;17.70;99.90
39345;DHT22;25061;51.954;6.996;2023-06-05T09:29:30;17.70;99.90
39345;DHT22;25061;51.954;6.996;2023-06-05T09:31:58;17.70;99.90
39345;DHT22;25061;51.954;6.996;2023-06-05T09:37:00;18.00;99.90
39345;DHT22;25061;51.954;6.996;2023-06-05T09:39:27;18.00;99.90
39345;DHT22;25061;51.954;6.996;2023-06-05T09:41:56;17.90;99.90
39345;DHT22;25061;51.954;6.996;2023-06-05T09:44:22;18.10;99.90
39345;DHT22;25061;51.954;6.996;2023-06-05T09:49:24;18.20;99.90
39345;DHT22;25061;51.954;6.996;2023-06-05T09:51:50;18.20;99.90
39345;DHT22;25061;51.954;6.996;2023-06-05T09:54:16;18.30;99.90
39345;DHT22;25061;51.954;6.996;2023-06-05T09:56:48;18.30;99.90
39345;DHT22;25061;51.954;6.996;2023-06-05T09:59:26;18.40;99.90
39345;DHT22;25061;51.954;6.996;2023-06-05T10:01:55;18.60;99.90
39345;DHT22;25061;51.954;6.996;2023-06-05T10:04:26;18.50;99.90
39345;DHT22;25061;51.954;6.996;2023-06-05T10:06:56;18.70;99.90
39345;DHT22;25061;51.954;6.996;2023-06-05T10:09:23;18.80;99.90
39345;DHT22;25061;51.954;6.996;2023-06-05T10:11:51;18.90;99.90
39345;DHT22;25061;51.954;6.996;2023-06-05T10:14:20;19.20;99.90
39345;DHT22;25061;51.954;6.996;2023-06-05T10:16:50;19.30;99.90
39345;DHT22;25061;51.954;6.996;2023-06-05T10:19:18;19.30;99.90
39345;DHT22;25061;51.954;6.996;2023-06-05T10:21:47;19.40;99.90
39345;DHT22;25061;51.954;6.996;2023-06-05T10:24:17;19.30;99.90
39345;DHT22;25061;51.954;6.996;2023-06-05T10:27:20;19.30;99.90
39345;DHT22;25061;51.954;6.996;2023-06-05T10:32:53;19.40;99.90
39345;DHT22;25061;51.954;6.996;2023-06-05T10:38:21;19.40;99.90
39345;DHT22;25061;51.954;6.996;2023-06-05T10:40:58;19.50;99.90
39345;DHT22;25061;51.954;6.996;2023-06-05T10:43:46;19.60;99.90
39345;DHT22;25061;51.954;6.996;2023-06-05T10:49:13;19.80;99.90
39345;DHT22;25061;51.954;6.996;2023-06-05T10:51:43;20.00;99.90
39345;DHT22;25061;51.954;6.996;2023-06-05T10:54:53;20.20;99.90
39345;DHT22;25061;51.954;6.996;2023-06-05T10:57:01;20.20;99.90
39345;DHT22;25061;51.954;6.996;2023-06-05T10:59:39;20.30;99.90
39345;DHT22;25061;51.954;6.996;2023-06-05T11:07:20;20.10;99.90
39345;DHT22;25061;51.954;6.996;2023-06-05T11:12:51;20.40;99.90
39345;DHT22;25061;51.954;6.996;2023-06-05T11:15:35;20.30;99.90
39345;DHT22;25061;51.954;6.996;2023-06-05T11:18:30;20.50;99.90
39345;DHT22;25061;51.954;6.996;2023-06-05T11:20:56;20.70;99.90
39345;DHT22;25061;51.954;6.996;2023-06-05T11:23:22;20.70;99.90
39345;DHT22;25061;51.954;6.996;2023-06-05T11:25:53;20.80;99.90
39345;DHT22;25061;51.954;6.996;2023-06-05T11:28:42;20.70;99.90
39345;DHT22;25061;51.954;6.996;2023-06-05T11:31:08;21.00;99.90
39345;DHT22;25061;51.954;6.996;2023-06-05T11:33:33;21.00;99.90
39345;DHT22;25061;51.954;6.996;2023-06-05T11:36:01;21.10;99.90
39345;DHT22;25061;51.954;6.996;2023-06-05T11:38:27;21.10;99.90
39345;DHT22;25061;51.954;6.996;2023-06-05T11:40:54;21.00;99.90
39345;DHT22;25061;51.954;6.996;2023-06-05T11:43:20;21.10;99.90
39345;DHT22;25061;51.954;6.996;2023-06-05T11:45:54;21.40;99.90
39345;DHT22;25061;51.954;6.996;2023-06-05T11:48:20;21.70;99.90
39345;DHT22;25061;51.954;6.996;2023-06-05T11:51:03;21.20;99.90
39345;DHT22;25061;51.954;6.996;2023-06-05T11:53:32;21.60;99.90
39345;DHT22;25061;51.954;6.996;2023-06-05T11:55:58;21.60;99.90
39345;DHT22;25061;51.954;6.996;2023-06-05T11:58:37;21.70;99.90
39345;DHT22;25061;51.954;6.996;2023-06-05T12:03:41;21.50;97.70
39345;DHT22;25061;51.954;6.996;2023-06-05T12:06:07;21.50;98.60
39345;DHT22;25061;51.954;6.996;2023-06-05T12:08:34;21.60;99.60
39345;DHT22;25061;51.954;6.996;2023-06-05T12:11:02;21.70;99.50
39345;DHT22;25061;51.954;6.996;2023-06-05T12:16:16;22.00;97.90
39345;DHT22;25061;51.954;6.996;2023-06-05T12:18:43;22.00;96.30
39345;DHT22;25061;51.954;6.996;2023-06-05T12:21:20;22.10;96.50
39345;DHT22;25061;51.954;6.996;2023-06-05T12:23:46;21.70;95.30
39345;DHT22;25061;51.954;6.996;2023-06-05T12:26:12;22.10;96.10
39345;DHT22;25061;51.954;6.996;2023-06-05T12:28:37;22.10;93.90
39345;DHT22;25061;51.954;6.996;2023-06-05T12:31:04;22.10;95.50
39345;DHT22;25061;51.954;6.996;2023-06-05T12:33:31;22.40;95.30
39345;DHT22;25061;51.954;6.996;2023-06-05T12:36:07;22.80;94.90
39345;DHT22;25061;51.954;6.996;2023-06-05T12:38:40;22.40;94.20
39345;DHT22;25061;51.954;6.996;2023-06-05T12:41:07;22.30;95.70
39345;DHT22;25061;51.954;6.996;2023-06-05T12:43:34;22.80;93.30
39345;DHT22;25061;51.954;6.996;2023-06-05T12:46:00;22.90;93.50
39345;DHT22;25061;51.954;6.996;2023-06-05T12:48:26;22.80;91.80
39345;DHT22;25061;51.954;6.996;2023-06-05T12:50:52;23.00;93.00
39345;DHT22;25061;51.954;6.996;2023-06-05T12:53:18;22.90;93.00
39345;DHT22;25061;51.954;6.996;2023-06-05T12:55:45;22.70;93.10
39345;DHT22;25061;51.954;6.996;2023-06-05T12:58:11;23.00;94.10
39345;DHT22;25061;51.954;6.996;2023-06-05T13:00:36;22.80;92.70
39345;DHT22;25061;51.954;6.996;2023-06-05T13:03:02;23.10;93.70
39345;DHT22;25061;51.954;6.996;2023-06-05T13:05:32;23.10;92.20
39345;DHT22;25061;51.954;6.996;2023-06-05T13:07:58;23.00;94.60
39345;DHT22;25061;51.954;6.996;2023-06-05T13:10:24;23.30;93.20
39345;DHT22;25061;51.954;6.996;2023-06-05T13:12:50;23.50;93.10
39345;DHT22;25061;51.954;6.996;2023-06-05T13:15:16;23.70;91.80
39345;DHT22;25061;51.954;6.996;2023-06-05T13:17:41;23.70;92.70
39345;DHT22;25061;51.954;6.996;2023-06-05T13:20:08;23.90;91.90
39345;DHT22;25061;51.954;6.996;2023-06-05T13:22:39;23.90;92.40
39345;DHT22;25061;51.954;6.996;2023-06-05T13:25:06;24.20;91.70
39345;DHT22;25061;51.954;6.996;2023-06-05T13:27:32;24.20;88.70
39345;DHT22;25061;51.954;6.996;2023-06-05T13:29:58;23.90;90.60
39345;DHT22;25061;51.954;6.996;2023-06-05T13:32:24;24.20;90.40
39345;DHT22;25061;51.954;6.996;2023-06-05T13:34:50;23.80;90.30
39345;DHT22;25061;51.954;6.996;2023-06-05T13:37:16;24.20;86.40
39345;DHT22;25061;51.954;6.996;2023-06-05T13:39:41;23.80;87.90
39345;DHT22;25061;51.954;6.996;2023-06-05T13:42:07;24.20;88.10
39345;DHT22;25061;51.954;6.996;2023-06-05T13:44:34;24.50;87.00
39345;DHT22;25061;51.954;6.996;2023-06-05T13:46:59;24.40;86.20
39345;DHT22;25061;51.954;6.996;2023-06-05T13:49:31;24.50;90.00
39345;DHT22;25061;51.954;6.996;2023-06-05T13:51:57;24.90;86.90
39345;DHT22;25061;51.954;6.996;2023-06-05T13:54:22;24.80;88.60
39345;DHT22;25061;51.954;6.996;2023-06-05T13:56:48;24.90;88.00
39345;DHT22;25061;51.954;6.996;2023-06-05T13:59:14;25.00;86.60
39345;DHT22;25061;51.954;6.996;2023-06-05T14:01:42;24.20;81.60
39345;DHT22;25061;51.954;6.996;2023-06-05T14:04:07;24.70;84.30
39345;DHT22;25061;51.954;6.996;2023-06-05T14:06:33;24.90;83.10
39345;DHT22;25061;51.954;6.996;2023-06-05T14:09:02;24.60;83.00
39345;DHT22;25061;51.954;6.996;2023-06-05T14:11:28;25.00;84.20
39345;DHT22;25061;51.954;6.996;2023-06-05T14:13:54;24.80;79.40
39345;DHT22;25061;51.954;6.996;2023-06-05T14:16:20;24.80;78.30
39345;DHT22;25061;51.954;6.996;2023-06-05T14:18:45;25.30;80.10
39345;DHT22;25061;51.954;6.996;2023-06-05T14:21:12;25.10;77.60
39345;DHT22;25061;51.954;6.996;2023-06-05T14:23:38;24.80;76.60
39345;DHT22;25061;51.954;6.996;2023-06-05T14:26:04;24.50;77.70
39345;DHT22;25061;51.954;6.996;2023-06-05T14:28:33;24.60;84.60
39345;DHT22;25061;51.954;6.996;2023-06-05T14:30:59;25.10;82.80
39345;DHT22;25061;51.954;6.996;2023-06-05T14:33:24;24.80;81.30
39345;DHT22;25061;51.954;6.996;2023-06-05T14:35:50;24.50;81.80
39345;DHT22;25061;51.954;6.996;2023-06-05T14:38:16;25.20;82.70
39345;DHT22;25061;51.954;6.996;2023-06-05T14:40:42;24.80;80.00
39345;DHT22;25061;51.954;6.996;2023-06-05T14:43:07;24.90;80.30
39345;DHT22;25061;51.954;6.996;2023-06-05T14:45:33;24.80;80.10
39345;DHT22;25061;51.954;6.996;2023-06-05T14:47:59;25.00;80.50
39345;DHT22;25061;51.954;6.996;2023-06-05T14:50:24;25.10;79.30
39345;DHT22;25061;51.954;6.996;2023-06-05T14:52:50;24.90;76.90
39345;DHT22;25061;51.954;6.996;2023-06-05T14:55:16;24.70;76.60
39345;DHT22;25061;51.954;6.996;2023-06-05T14:57:42;24.80;78.20
39345;DHT22;25061;51.954;6.996;2023-06-05T15:00:08;24.80;78.50
39345;DHT22;25061;51.954;6.996;2023-06-05T15:02:52;25.00;79.30
39345;DHT22;25061;51.954;6.996;2023-06-05T15:05:18;25.10;79.00
39345;DHT22;25061;51.954;6.996;2023-06-05T15:07:44;24.80;75.50
39345;DHT22;25061;51.954;6.996;2023-06-05T15:10:10;24.90;78.10
39345;DHT22;25061;51.954;6.996;2023-06-05T15:12:51;24.30;78.40
39345;DHT22;25061;51.954;6.996;2023-06-05T15:15:22;24.60;81.10
39345;DHT22;25061;51.954;6.996;2023-06-05T15:17:48;24.50;75.20
39345;DHT22;25061;51.954;6.996;2023-06-05T15:20:14;24.50;75.60
39345;DHT22;25061;51.954;6.996;2023-06-05T15:22:43;25.00;75.60
39345;DHT22;25061;51.954;6.996;2023-06-05T15:25:16;24.30;75.20
39345;DHT22;25061;51.954;6.996;2023-06-05T15:27:43;23.90;78.20
39345;DHT22;25061;51.954;6.996;2023-06-05T15:30:10;24.60;81.30
39345;DHT22;25061;51.954;6.996;2023-06-05T15:32:35;24.60;79.10
39345;DHT22;25061;51.954;6.996;2023-06-05T15:35:03;24.90;78.60
39345;DHT22;25061;51.954;6.996;2023-06-05T15:37:29;24.70;79.90
39345;DHT22;25061;51.954;6.996;2023-06-05T15:39:54;25.10;78.40
39345;DHT22;25061;51.954;6.996;2023-06-05T15:42:33;25.00;75.80
39345;DHT22;25061;51.954;6.996;2023-06-05T15:45:23;24.80;76.90
39345;DHT22;25061;51.954;6.996;2023-06-05T15:47:49;25.10;77.20
39345;DHT22;25061;51.954;6.996;2023-06-05T15:50:14;24.80;75.30
39345;DHT22;25061;51.954;6.996;2023-06-05T15:52:40;24.60;75.90
39345;DHT22;25061;51.954;6.996;2023-06-05T15:55:15;24.90;78.00
39345;DHT22;25061;51.954;6.996;2023-06-05T15:57:44;24.90;76.00
39345;DHT22;25061;51.954;6.996;2023-06-05T16:00:11;25.00;76.90
39345;DHT22;25061;51.954;6.996;2023-06-05T16:02:38;25.00;75.60
39345;DHT22;25061;51.954;6.996;2023-06-05T16:05:05;25.00;75.20
39345;DHT22;25061;51.954;6.996;2023-06-05T16:07:31;24.90;74.80
39345;DHT22;25061;51.954;6.996;2023-06-05T16:09:56;24.80;76.40
39345;DHT22;25061;51.954;6.996;2023-06-05T16:12:22;25.10;78.10
39345;DHT22;25061;51.954;6.996;2023-06-05T16:14:48;24.80;76.60
39345;DHT22;25061;51.954;6.996;2023-06-05T16:17:13;24.60;76.00
39345;DHT22;25061;51.954;6.996;2023-06-05T16:19:40;24.80;77.40
39345;DHT22;25061;51.954;6.996;2023-06-05T16:22:06;24.60;75.80
39345;DHT22;25061;51.954;6.996;2023-06-05T16:24:32;24.60;79.90
39345;DHT22;25061;51.954;6.996;2023-06-05T16:27:01;24.60;76.60
39345;DHT22;25061;51.954;6.996;2023-06-05T16:29:28;24.40;76.60
39345;DHT22;25061;51.954;6.996;2023-06-05T16:31:53;24.40;74.70
39345;DHT22;25061;51.954;6.996;2023-06-05T16:34:21;24.40;76.40
39345;DHT22;25061;51.954;6.996;2023-06-05T16:36:48;24.20;78.20
39345;DHT22;25061;51.954;6.996;2023-06-05T16:39:17;24.20;75.20
39345;DHT22;25061;51.954;6.996;2023-06-05T16:41:43;24.20;77.00
39345;DHT22;25061;51.954;6.996;2023-06-05T16:44:09;24.10;74.20
39345;DHT22;25061;51.954;6.996;2023-06-05T16:46:38;24.20;76.00
39345;DHT22;25061;51.954;6.996;2023-06-05T16:49:04;24.20;75.50
39345;DHT22;25061;51.954;6.996;2023-06-05T16:51:30;24.10;74.90
39345;DHT22;25061;51.954;6.996;2023-06-05T16:53:56;24.10;77.20
39345;DHT22;25061;51.954;6.996;2023-06-05T16:56:23;24.10;75.40
39345;DHT22;25061;51.954;6.996;2023-06-05T16:58:49;24.00;75.20
39345;DHT22;25061;51.954;6.996;2023-06-05T17:01:15;24.10;75.80
39345;DHT22;25061;51.954;6.996;2023-06-05T17:03:43;23.90;75.00
39345;DHT22;25061;51.954;6.996;2023-06-05T17:06:10;23.90;75.40
39345;DHT22;25061;51.954;6.996;2023-06-05T17:08:36;24.10;75.90
39345;DHT22;25061;51.954;6.996;2023-06-05T17:11:02;24.10;75.80
39345;DHT22;25061;51.954;6.996;2023-06-05T17:13:29;24.20;75.70
39345;DHT22;25061;51.954;6.996;2023-06-05T17:15:54;24.10;75.40
39345;DHT22;25061;51.954;6.996;2023-06-05T17:18:20;24.10;76.10
39345;DHT22;25061;51.954;6.996;2023-06-05T17:20:45;23.90;75.90
39345;DHT22;25061;51.954;6.996;2023-06-05T17:23:11;23.70;76.00
39345;DHT22;25061;51.954;6.996;2023-06-05T17:25:38;23.90;77.90
39345;DHT22;25061;51.954;6.996;2023-06-05T17:28:03;23.90;76.90
39345;DHT22;25061;51.954;6.996;2023-06-05T17:30:29;23.90;76.40
39345;DHT22;25061;51.954;6.996;2023-06-05T17:32:55;23.90;76.50
39345;DHT22;25061;51.954;6.996;2023-06-05T17:35:21;23.80;78.00
39345;DHT22;25061;51.954;6.996;2023-06-05T17:37:46;23.50;78.10
39345;DHT22;25061;51.954;6.996;2023-06-05T17:40:13;23.50;76.40
39345;DHT22;25061;51.954;6.996;2023-06-05T17:42:39;23.50;75.10
39345;DHT22;25061;51.954;6.996;2023-06-05T17:45:05;23.40;73.00
39345;DHT22;25061;51.954;6.996;2023-06-05T17:47:31;23.40;75.50
39345;DHT22;25061;51.954;6.996;2023-06-05T17:49:56;23.40;75.10
39345;DHT22;25061;51.954;6.996;2023-06-05T17:52:22;23.20;76.40
39345;DHT22;25061;51.954;6.996;2023-06-05T17:54:48;23.10;78.90
39345;DHT22;25061;51.954;6.996;2023-06-05T17:57:14;23.20;78.90
39345;DHT22;25061;51.954;6.996;2023-06-05T17:59:39;23.20;80.00
39345;DHT22;25061;51.954;6.996;2023-06-05T18:02:05;23.20;79.40
39345;DHT22;25061;51.954;6.996;2023-06-05T18:04:31;23.20;79.10
39345;DHT22;25061;51.954;6.996;2023-06-05T18:06:57;23.20;79.50
39345;DHT22;25061;51.954;6.996;2023-06-05T18:09:23;23.10;78.40
39345;DHT22;25061;51.954;6.996;2023-06-05T18:11:48;23.00;81.50
39345;DHT22;25061;51.954;6.996;2023-06-05T18:14:15;23.00;81.30
39345;DHT22;25061;51.954;6.996;2023-06-05T18:16:40;22.90;81.20
39345;DHT22;25061;51.954;6.996;2023-06-05T18:19:07;22.80;81.10
39345;DHT22;25061;51.954;6.996;2023-06-05T18:21:32;22.60;80.50
39345;DHT22;25061;51.954;6.996;2023-06-05T18:24:02;22.70;82.50
39345;DHT22;25061;51.954;6.996;2023-06-05T18:26:28;22.60;82.10
39345;DHT22;25061;51.954;6.996;2023-06-05T18:28:54;22.50;84.00
39345;DHT22;25061;51.954;6.996;2023-06-05T18:31:20;22.50;84.80
39345;DHT22;25061;51.954;6.996;2023-06-05T18:33:46;22.40;83.50
39345;DHT22;25061;51.954;6.996;2023-06-05T18:36:13;22.40;83.80
39345;DHT22;25061;51.954;6.996;2023-06-05T18:38:39;22.30;84.40
39345;DHT22;25061;51.954;6.996;2023-06-05T18:41:05;22.30;86.00
39345;DHT22;25061;51.954;6.996;2023-06-05T18:43:30;22.30;86.40
39345;DHT22;25061;51.954;6.996;2023-06-05T18:45:57;22.20;87.10
39345;DHT22;25061;51.954;6.996;2023-06-05T18:48:24;22.10;90.60
39345;DHT22;25061;51.954;6.996;2023-06-05T18:50:49;21.80;92.50
39345;DHT22;25061;51.954;6.996;2023-06-05T18:53:15;21.60;94.30
39345;DHT22;25061;51.954;6.996;2023-06-05T18:55:41;21.50;95.10
39345;DHT22;25061;51.954;6.996;2023-06-05T18:58:06;21.30;96.20
39345;DHT22;25061;51.954;6.996;2023-06-05T19:00:32;21.20;96.90
39345;DHT22;25061;51.954;6.996;2023-06-05T19:02:57;21.10;97.20
39345;DHT22;25061;51.954;6.996;2023-06-05T19:05:25;21.10;97.30
39345;DHT22;25061;51.954;6.996;2023-06-05T19:07:52;21.00;97.70
39345;DHT22;25061;51.954;6.996;2023-06-05T19:10:17;21.00;98.10
39345;DHT22;25061;51.954;6.996;2023-06-05T19:12:43;20.90;98.60
39345;DHT22;25061;51.954;6.996;2023-06-05T19:15:09;20.80;98.80
39345;DHT22;25061;51.954;6.996;2023-06-05T19:17:36;20.70;98.90
39345;DHT22;25061;51.954;6.996;2023-06-05T19:20:01;20.60;99.50
39345;DHT22;25061;51.954;6.996;2023-06-05T19:22:29;20.50;99.90
39345;DHT22;25061;51.954;6.996;2023-06-05T19:24:54;20.30;99.90
39345;DHT22;25061;51.954;6.996;2023-06-05T19:27:20;20.40;99.90
39345;DHT22;25061;51.954;6.996;2023-06-05T19:29:48;20.30;99.90
39345;DHT22;25061;51.954;6.996;2023-06-05T19:32:14;20.20;99.90
39345;DHT22;25061;51.954;6.996;2023-06-05T19:34:39;19.90;99.90
39345;DHT22;25061;51.954;6.996;2023-06-05T19:37:05;19.80;99.90
39345;DHT22;25061;51.954;6.996;2023-06-05T19:39:32;19.60;99.90
39345;DHT22;25061;51.954;6.996;2023-06-05T19:41:58;19.50;99.90
39345;DHT22;25061;51.954;6.996;2023-06-05T19:44:23;19.40;99.90
39345;DHT22;25061;51.954;6.996;2023-06-05T19:46:49;19.40;99.90
39345;DHT22;25061;51.954;6.996;2023-06-05T19:49:15;19.40;99.90
39345;DHT22;25061;51.954;6.996;2023-06-05T19:51:42;19.30;99.90
39345;DHT22;25061;51.954;6.996;2023-06-05T19:54:08;19.10;99.90
39345;DHT22;25061;51.954;6.996;2023-06-05T19:56:35;19.10;99.90
39345;DHT22;25061;51.954;6.996;2023-06-05T19:59:00;19.00;99.90
39345;DHT22;25061;51.954;6.996;2023-06-05T20:01:26;18.90;99.90
39345;DHT22;25061;51.954;6.996;2023-06-05T20:03:52;18.80;99.90
39345;DHT22;25061;51.954;6.996;2023-06-05T20:06:17;18.80;99.90
39345;DHT22;25061;51.954;6.996;2023-06-05T20:08:46;18.70;99.90
39345;DHT22;25061;51.954;6.996;2023-06-05T20:11:13;18.70;99.90
39345;DHT22;25061;51.954;6.996;2023-06-05T20:13:39;18.60;99.90
39345;DHT22;25061;51.954;6.996;2023-06-05T20:16:05;18.50;99.90
39345;DHT22;25061;51.954;6.996;2023-06-05T20:18:31;18.50;99.90
39345;DHT22;25061;51.954;6.996;2023-06-05T20:20:58;18.40;99.90
39345;DHT22;25061;51.954;6.996;2023-06-05T20:23:24;18.40;99.90
39345;DHT22;25061;51.954;6.996;2023-06-05T20:25:49;18.20;99.90
39345;DHT22;25061;51.954;6.996;2023-06-05T20:28:15;18.20;99.90